Time;durP1;ratioP1;P1;durP2;ratioP2;P2;SDS_P1;SDS_P2;PMS_P1;PMS_P2;Temp;Humidity;BMP_temperature;BMP_pressure;BME280_temperature;BME280_humidity;BME280_pressure;Samples;Min_cycle;Max_cycle;Signal;HPM_P1;HPM_P2
2022/08/17 00:01:06;;;;;;;5.07;4.47;;;;;;;;;;5049429;28;20094;-70
2022/08/17 00:03:38;;;;;;;5.05;4.50;;;;;;;;;;5050515;28;20510;-70
2022/08/17 00:06:10;;;;;;;4.77;4.37;;;;;;;;;;5042855;28;20045;-70
2022/08/17 00:08:57;;;;;;;4.80;4.40;;;;;;;;;;5039016;28;20357;-71
2022/08/17 00:11:27;;;;;;;4.57;4.18;;;;;;;;;;5030307;28;20033;-71
2022/08/17 00:13:59;;;;;;;5.35;4.70;;;;;;;;;;5030497;28;20029;-70
2022/08/17 00:16:31;;;;;;;5.20;4.70;;;;;;;;;;5040710;28;20550;-71
2022/08/17 00:19:03;;;;;;;5.07;4.60;;;;;;;;;;5044304;28;20025;-70
2022/08/17 00:21:29;;;;;;;;;;;;;;;;;;5036001;28;20037;-70
2022/08/17 00:23:54;;;;;;;5.82;4.70;;;;;;;;;;5030114;28;20383;-70
2022/08/17 00:26:21;;;;;;;6.75;4.60;;;;;;;;;;5040063;28;20063;-70
2022/08/17 00:28:47;;;;;;;5.45;4.65;;;;;;;;;;5042355;28;20025;-70
2022/08/17 00:31:13;;;;;;;5.40;4.90;;;;;;;;;;5049765;28;20035;-71
2022/08/17 00:33:39;;;;;;;5.78;5.20;;;;;;;;;;5050158;28;20320;-70
2022/08/17 00:36:06;;;;;;;4.93;4.50;;;;;;;;;;5045724;28;20054;-70
2022/08/17 00:38:32;;;;;;;5.13;4.63;;;;;;;;;;5041745;28;20028;-70
2022/08/17 00:41:02;;;;;;;5.32;4.82;;;;;;;;;;5049764;28;20032;-70
2022/08/17 00:43:53;;;;;;;5.20;4.70;;;;;;;;;;5049947;28;20473;-70
2022/08/17 00:46:27;;;;;;;5.28;4.57;;;;;;;;;;5041057;28;20494;-70
2022/08/17 00:48:53;;;;;;;5.10;4.60;;;;;;;;;;5033502;28;20099;-70
2022/08/17 00:51:46;;;;;;;5.55;4.78;;;;;;;;;;5029375;28;20487;-70
2022/08/17 00:54:27;;;;;;;5.43;4.78;;;;;;;;;;5025730;28;20491;-70
2022/08/17 00:57:03;;;;;;;5.55;4.90;;;;;;;;;;5031756;28;20025;-70
2022/08/17 00:59:33;;;;;;;5.28;4.70;;;;;;;;;;5032396;28;20037;-70
2022/08/17 01:02:00;;;;;;;5.72;4.85;;;;;;;;;;5029224;28;20491;-70
2022/08/17 01:04:27;;;;;;;6.20;4.57;;;;;;;;;;5029580;28;20041;-71
2022/08/17 01:06:53;;;;;;;6.88;5.07;;;;;;;;;;5036153;28;20032;-71
2022/08/17 01:09:20;;;;;;;5.22;4.72;;;;;;;;;;5046285;28;20028;-71
2022/08/17 01:11:50;;;;;;;6.45;4.95;;;;;;;;;;5033977;28;20176;-70
2022/08/17 01:14:18;;;;;;;5.43;4.93;;;;;;;;;;5040974;28;20404;-70
2022/08/17 01:16:43;;;;;;;5.30;4.80;;;;;;;;;;5041913;28;20037;-70
2022/08/17 01:19:16;;;;;;;5.38;4.88;;;;;;;;;;5042223;28;20021;-71
2022/08/17 01:22:05;;;;;;;5.30;4.80;;;;;;;;;;5029505;28;20022;-71
2022/08/17 01:24:32;;;;;;;5.65;5.15;;;;;;;;;;5029176;28;20033;-71
2022/08/17 01:26:58;;;;;;;5.13;4.63;;;;;;;;;;5036052;28;20045;-71
2022/08/17 01:29:24;;;;;;;7.18;5.03;;;;;;;;;;5046191;28;20103;-70
2022/08/17 01:31:53;;;;;;;6.18;4.75;;;;;;;;;;5048780;28;20116;-71
2022/08/17 01:34:19;;;;;;;7.35;5.07;;;;;;;;;;5048947;28;20025;-71
2022/08/17 01:36:46;;;;;;;6.05;5.50;;;;;;;;;;5038240;28;20395;-70
2022/08/17 01:39:49;;;;;;;5.40;4.90;;;;;;;;;;5025866;28;20329;-71
2022/08/17 01:42:25;;;;;;;5.27;4.87;;;;;;;;;;4974143;28;20053;-71
2022/08/17 01:44:55;;;;;;;5.93;5.15;;;;;;;;;;5021709;28;20656;-70
2022/08/17 01:47:20;;;;;;;5.32;4.78;;;;;;;;;;5036109;28;20487;-71
2022/08/17 01:49:46;;;;;;;5.43;4.93;;;;;;;;;;5048459;28;20043;-70
2022/08/17 01:52:12;;;;;;;7.38;5.80;;;;;;;;;;5048718;28;20384;-71
2022/08/17 01:54:40;;;;;;;5.85;5.35;;;;;;;;;;5048879;28;20106;-70
2022/08/17 01:57:05;;;;;;;6.00;5.45;;;;;;;;;;5034321;28;20036;-71
2022/08/17 01:59:31;;;;;;;5.95;5.45;;;;;;;;;;5039362;28;20029;-70
2022/08/17 02:01:56;;;;;;;7.38;5.15;;;;;;;;;;5034876;28;20018;-70
2022/08/17 02:04:21;;;;;;;5.63;5.00;;;;;;;;;;5028467;28;20064;-70
2022/08/17 02:06:47;;;;;;;5.88;5.30;;;;;;;;;;5025329;28;20035;-70
2022/08/17 02:09:13;;;;;;;7.07;5.20;;;;;;;;;;5040083;28;20091;-70
2022/08/17 02:11:38;;;;;;;6.50;5.60;;;;;;;;;;5033669;28;20140;-70
2022/08/17 02:14:06;;;;;;;5.47;4.97;;;;;;;;;;5028293;28;20494;-71
2022/08/17 02:16:34;;;;;;;5.53;5.03;;;;;;;;;;5028939;28;20104;-71
2022/08/17 02:19:00;;;;;;;5.25;4.75;;;;;;;;;;5039840;28;20055;-70
2022/08/17 02:21:25;;;;;;;5.72;5.22;;;;;;;;;;5048290;28;20486;-71
2022/08/17 02:23:51;;;;;;;5.90;5.30;;;;;;;;;;5047624;28;20041;-70
2022/08/17 02:26:16;;;;;;;5.60;5.03;;;;;;;;;;5043715;28;20479;-70
2022/08/17 02:28:41;;;;;;;5.70;5.20;;;;;;;;;;5039631;28;20021;-71
2022/08/17 02:31:09;;;;;;;6.78;5.47;;;;;;;;;;5047814;28;20518;-70
2022/08/17 02:33:35;;;;;;;6.70;5.50;;;;;;;;;;5041450;28;20018;-70
2022/08/17 02:36:02;;;;;;;5.85;5.25;;;;;;;;;;5041547;28;20539;-70
2022/08/17 02:38:28;;;;;;;6.63;4.93;;;;;;;;;;5026955;28;20036;-71
2022/08/17 02:40:53;;;;;;;7.03;5.47;;;;;;;;;;5007982;28;20473;-70
2022/08/17 02:43:18;;;;;;;6.53;5.50;;;;;;;;;;5008478;28;20041;-71
2022/08/17 02:45:44;;;;;;;5.85;5.30;;;;;;;;;;5031775;28;20022;-71
2022/08/17 02:48:10;;;;;;;6.55;5.90;;;;;;;;;;5043076;28;20060;-70
2022/08/17 02:50:35;;;;;;;7.00;5.55;;;;;;;;;;5047646;28;20028;-70
2022/08/17 02:53:01;;;;;;;6.05;5.30;;;;;;;;;;5024452;28;20056;-70
2022/08/17 02:55:31;;;;;;;6.15;5.55;;;;;;;;;;5034818;28;20116;-70
2022/08/17 02:57:57;;;;;;;6.13;5.57;;;;;;;;;;5041347;28;20128;-71
2022/08/17 03:00:29;;;;;;;5.97;5.45;;;;;;;;;;5047990;28;20315;-71
2022/08/17 03:02:55;;;;;;;;;;;;;;;;;;5037080;28;20053;-71
2022/08/17 03:05:23;;;;;;;7.63;5.82;;;;;;;;;;5035181;28;19998;-71
2022/08/17 03:07:48;;;;;;;6.93;5.38;;;;;;;;;;5034846;28;20033;-70
2022/08/17 03:10:14;;;;;;;6.30;5.70;;;;;;;;;;5028085;28;20033;-70
2022/08/17 03:12:40;;;;;;;6.97;6.00;;;;;;;;;;5027982;28;20035;-71
2022/08/17 03:15:09;;;;;;;7.35;4.90;;;;;;;;;;5033096;28;20040;-71
2022/08/17 03:17:34;;;;;;;6.13;5.47;;;;;;;;;;5039191;28;20495;-71
2022/08/17 03:20:00;;;;;;;6.45;5.43;;;;;;;;;;5047767;28;20036;-70
2022/08/17 03:22:26;;;;;;;7.00;5.65;;;;;;;;;;5047485;28;20551;-70
2022/08/17 03:24:51;;;;;;;5.95;5.45;;;;;;;;;;5042097;28;20102;-70
2022/08/17 03:27:17;;;;;;;7.22;5.57;;;;;;;;;;5039383;28;20480;-70
2022/08/17 03:29:42;;;;;;;5.85;5.35;;;;;;;;;;5047625;28;20040;-72
2022/08/17 03:32:12;;;;;;;6.43;5.80;;;;;;;;;;5047602;28;20028;-71
2022/08/17 03:34:38;;;;;;;6.15;5.57;;;;;;;;;;5040321;28;20065;-70
2022/08/17 03:37:03;;;;;;;7.53;5.88;;;;;;;;;;5049599;28;20060;-71
2022/08/17 03:39:28;;;;;;;6.05;5.50;;;;;;;;;;5050949;28;20025;-70
2022/08/17 03:42:01;;;;;;;6.65;5.97;;;;;;;;;;5050939;28;20029;-71
2022/08/17 03:44:26;;;;;;;7.78;6.22;;;;;;;;;;5045786;28;20522;-70
2022/08/17 03:57:48;;;;;;;6.43;5.40;;;;;;;;;;5035469;28;20445;-71
2022/08/17 04:00:14;;;;;;;6.57;5.53;;;;;;;;;;5050504;28;20057;-70
2022/08/17 04:02:41;;;;;;;7.22;5.82;;;;;;;;;;5045569;28;20407;-71
2022/08/17 04:05:08;;;;;;;5.90;5.28;;;;;;;;;;5032660;28;20033;-71
2022/08/17 04:07:33;;;;;;;5.70;5.18;;;;;;;;;;5038904;28;20045;-71
2022/08/17 04:09:59;;;;;;;7.60;6.75;;;;;;;;;;5050345;28;20047;-71
2022/08/17 04:12:29;;;;;;;7.38;6.47;;;;;;;;;;5050469;28;20511;-72
2022/08/17 04:14:55;;;;;;;5.93;5.35;;;;;;;;;;5046203;28;20036;-72
2022/08/17 04:17:29;;;;;;;6.18;5.57;;;;;;;;;;5042136;28;20041;-71
2022/08/17 04:19:55;;;;;;;6.68;5.63;;;;;;;;;;5050065;28;20029;-71
2022/08/17 04:22:21;;;;;;;6.35;5.72;;;;;;;;;;5050239;28;20047;-71
2022/08/17 04:24:46;;;;;;;7.47;5.60;;;;;;;;;;5046141;28;20128;-71
2022/08/17 04:27:11;;;;;;;5.95;5.38;;;;;;;;;;5042021;28;20108;-71
2022/08/17 04:29:37;;;;;;;6.30;5.80;;;;;;;;;;5050102;28;20047;-71
2022/08/17 04:32:02;;;;;;;5.80;5.28;;;;;;;;;;5033520;28;20380;-71
2022/08/17 04:34:28;;;;;;;5.63;5.13;;;;;;;;;;5029404;28;20025;-70
2022/08/17 04:36:53;;;;;;;6.30;5.20;;;;;;;;;;5041509;28;20035;-70
2022/08/17 04:39:18;;;;;;;7.20;6.28;;;;;;;;;;5049962;28;20028;-70
2022/08/17 04:44:27;;;;;;;6.15;5.53;;;;;;;;;;5033903;28;20037;-70
2022/08/17 04:46:52;;;;;;;5.82;5.30;;;;;;;;;;5029256;28;20021;-70
2022/08/17 04:49:18;;;;;;;6.72;4.97;;;;;;;;;;5034925;28;20029;-70
2022/08/17 04:51:45;;;;;;;5.65;5.05;;;;;;;;;;5041049;28;20384;-70
2022/08/17 04:54:16;;;;;;;6.10;5.22;;;;;;;;;;5049675;28;20386;-71
2022/08/17 04:56:42;;;;;;;7.93;5.60;;;;;;;;;;5049564;28;20082;-71
2022/08/17 04:59:11;;;;;;;5.53;5.03;;;;;;;;;;5034672;28;20030;-70
2022/08/17 05:01:39;;;;;;;6.65;5.55;;;;;;;;;;5027489;28;20305;-71
2022/08/17 05:04:10;;;;;;;5.82;5.07;;;;;;;;;;5029396;28;20364;-71
2022/08/17 05:06:35;;;;;;;5.68;4.75;;;;;;;;;;5029913;28;20037;-70
2022/08/17 05:09:01;;;;;;;6.90;5.60;;;;;;;;;;5034103;28;20508;-70
2022/08/17 05:11:27;;;;;;;7.38;5.57;;;;;;;;;;5029816;28;20120;-70
2022/08/17 05:13:54;;;;;;;6.53;5.85;;;;;;;;;;5049223;28;20035;-70
2022/08/17 05:16:20;;;;;;;7.22;5.97;;;;;;;;;;5040157;28;20091;-70
2022/08/17 05:18:46;;;;;;;6.88;6.18;;;;;;;;;;5029561;28;20041;-70
2022/08/17 05:21:11;;;;;;;8.90;6.35;;;;;;;;;;5020565;28;20036;-73
2022/08/17 05:23:37;;;;;;;8.85;6.25;;;;;;;;;;5032207;28;20049;-72
2022/08/17 05:26:02;;;;;;;6.85;6.10;;;;;;;;;;5028873;28;20046;-72
2022/08/17 05:28:28;;;;;;;6.55;5.72;;;;;;;;;;5024256;28;20029;-72
2022/08/17 05:30:56;;;;;;;7.35;6.05;;;;;;;;;;5021471;28;20021;-72
2022/08/17 05:33:25;;;;;;;7.90;6.00;;;;;;;;;;5028943;28;20514;-72
2022/08/17 05:35:52;;;;;;;6.90;6.05;;;;;;;;;;5027120;28;20086;-70
2022/08/17 05:38:21;;;;;;;10.15;6.70;;;;;;;;;;5028541;28;20541;-72
2022/08/17 05:40:47;;;;;;;7.38;6.20;;;;;;;;;;5029139;28;20033;-71
2022/08/17 05:43:16;;;;;;;7.13;6.00;;;;;;;;;;5028285;28;20043;-71
2022/08/17 05:45:59;;;;;;;7.65;6.05;;;;;;;;;;5034018;28;20033;-71
2022/08/17 05:48:25;;;;;;;8.52;6.53;;;;;;;;;;5045554;28;20079;-71
2022/08/17 05:51:15;;;;;;;7.05;6.13;;;;;;;;;;5043065;28;20040;-71
2022/08/17 05:54:07;;;;;;;7.72;5.95;;;;;;;;;;5034974;28;20063;-71
2022/08/17 05:56:56;;;;;;;8.53;6.50;;;;;;;;;;5030341;28;20025;-71
2022/08/17 05:59:51;;;;;;;6.20;5.60;;;;;;;;;;5021413;28;20040;-72
2022/08/17 06:02:41;;;;;;;7.80;5.78;;;;;;;;;;5019978;28;20543;-71
2022/08/17 06:05:34;;;;;;;12.80;6.00;;;;;;;;;;5013586;28;20391;-70
2022/08/17 06:08:21;;;;;;;7.10;6.05;;;;;;;;;;5017991;28;20334;-71
2022/08/17 06:11:02;;;;;;;6.93;5.97;;;;;;;;;;5004659;28;20109;-70
2022/08/17 06:13:59;;;;;;;6.38;5.55;;;;;;;;;;5026926;28;20028;-71
2022/08/17 06:16:30;;;;;;;6.82;5.47;;;;;;;;;;5042221;28;20418;-70
2022/08/17 06:19:00;;;;;;;7.53;5.95;;;;;;;;;;5045215;28;20028;-71
2022/08/17 06:21:31;;;;;;;6.90;5.70;;;;;;;;;;5025781;28;20037;-71
2022/08/17 06:24:05;;;;;;;8.63;5.63;;;;;;;;;;5031103;28;20162;-71
2022/08/17 06:26:36;;;;;;;7.05;5.88;;;;;;;;;;5034878;28;20645;-71
2022/08/17 06:29:21;;;;;;;6.28;5.68;;;;;;;;;;5009182;28;20157;-71
2022/08/17 06:31:46;;;;;;;6.45;5.47;;;;;;;;;;4987220;28;20088;-71
2022/08/17 06:34:11;;;;;;;7.22;5.70;;;;;;;;;;5009465;28;20050;-71
2022/08/17 06:36:38;;;;;;;7.53;5.43;;;;;;;;;;5017397;28;20396;-71
2022/08/17 06:39:29;;;;;;;7.68;5.50;;;;;;;;;;5013061;28;20033;-72
2022/08/17 06:42:39;;;;;;;5.50;5.00;;;;;;;;;;5005319;28;20030;-71
2022/08/17 06:45:13;;;;;;;6.15;5.53;;;;;;;;;;5002428;28;20053;-71
2022/08/17 06:48:09;;;;;;;5.75;5.03;;;;;;;;;;5004504;28;20029;-72
2022/08/17 06:50:45;;;;;;;7.82;5.38;;;;;;;;;;5007334;28;20371;-71
2022/08/17 06:53:26;;;;;;;8.52;5.90;;;;;;;;;;5019506;28;20028;-70
2022/08/17 06:56:00;;;;;;;6.32;5.53;;;;;;;;;;5020245;28;20026;-70
2022/08/17 06:58:30;;;;;;;6.57;5.63;;;;;;;;;;5017742;28;20451;-70
2022/08/17 07:00:59;;;;;;;9.43;5.63;;;;;;;;;;5018847;28;20028;-71
2022/08/17 07:03:38;;;;;;;6.78;6.07;;;;;;;;;;5014309;28;20771;-71
2022/08/17 07:06:10;;;;;;;6.82;5.65;;;;;;;;;;5017579;28;20087;-71
2022/08/17 07:08:50;;;;;;;6.00;5.30;;;;;;;;;;5013050;28;20026;-71
2022/08/17 07:11:33;;;;;;;6.70;5.53;;;;;;;;;;5008278;28;20030;-71
2022/08/17 07:14:09;;;;;;;7.57;5.13;;;;;;;;;;5013254;28;20128;-71
2022/08/17 07:16:54;;;;;;;12.30;8.63;;;;;;;;;;5027075;28;20033;-71
2022/08/17 07:19:22;;;;;;;10.68;7.78;;;;;;;;;;5018512;28;20120;-72
2022/08/17 07:22:09;;;;;;;9.02;7.35;;;;;;;;;;5026260;28;20370;-71
2022/08/17 07:24:58;;;;;;;11.48;6.55;;;;;;;;;;5026242;28;20025;-71
2022/08/17 07:27:44;;;;;;;8.18;5.88;;;;;;;;;;5021432;28;20053;-71
2022/08/17 07:30:18;;;;;;;9.85;6.38;;;;;;;;;;5025713;28;20503;-71
2022/08/17 07:32:52;;;;;;;7.55;6.28;;;;;;;;;;5022298;28;20014;-70
2022/08/17 07:35:27;;;;;;;10.35;5.68;;;;;;;;;;5028747;28;20364;-70
2022/08/17 07:38:14;;;;;;;7.90;6.10;;;;;;;;;;5038073;28;20025;-70
2022/08/17 07:40:47;;;;;;;8.68;5.47;;;;;;;;;;5012519;28;20022;-70
2022/08/17 07:43:23;;;;;;;9.27;5.80;;;;;;;;;;5008301;28;20030;-71
2022/08/17 07:48:48;;;;;;;7.78;5.63;;;;;;;;;;5027677;28;20103;-71
2022/08/17 07:51:15;;;;;;;6.32;5.65;;;;;;;;;;5027650;28;20033;-71
2022/08/17 07:53:40;;;;;;;7.22;5.85;;;;;;;;;;5027482;28;20048;-71
2022/08/17 07:56:06;;;;;;;7.43;6.30;;;;;;;;;;5022388;28;20073;-71
2022/08/17 07:58:31;;;;;;;10.45;6.10;;;;;;;;;;5027101;28;20037;-71
2022/08/17 08:01:04;;;;;;;7.50;5.90;;;;;;;;;;5008771;28;20421;-71
2022/08/17 08:03:32;;;;;;;9.18;5.65;;;;;;;;;;5023531;28;20373;-69
2022/08/17 08:06:01;;;;;;;6.57;5.70;;;;;;;;;;5023369;28;20033;-70
2022/08/17 08:08:29;;;;;;;8.38;5.72;;;;;;;;;;5022111;28;20491;-70
2022/08/17 08:11:01;;;;;;;9.25;6.00;;;;;;;;;;5025931;28;20037;-69
2022/08/17 08:13:29;;;;;;;7.40;5.97;;;;;;;;;;5027079;28;20314;-69
2022/08/17 08:16:12;;;;;;;7.55;5.88;;;;;;;;;;5027247;28;20030;-69
2022/08/17 08:18:44;;;;;;;6.93;5.88;;;;;;;;;;5023184;28;20076;-69
2022/08/17 08:21:12;;;;;;;;;;;;;;;;;;5026786;28;20033;-69
2022/08/17 08:24:19;;;;;;;9.70;4.90;;;;;;;;;;5026921;28;19924;-72
2022/08/17 08:27:10;;;;;;;5.90;5.32;;;;;;;;;;4927160;29;20589;-70
2022/08/17 08:29:42;;;;;;;8.50;5.60;;;;;;;;;;5006046;28;20117;-71
2022/08/17 08:32:35;;;;;;;6.72;5.30;;;;;;;;;;5008371;28;20057;-69
2022/08/17 08:35:29;;;;;;;13.57;5.72;;;;;;;;;;5026347;28;20133;-69
2022/08/17 08:38:06;;;;;;;8.35;5.32;;;;;;;;;;5020980;28;20393;-70
2022/08/17 08:41:05;;;;;;;12.30;5.30;;;;;;;;;;5023126;28;20113;-69
2022/08/17 08:43:57;;;;;;;5.82;5.18;;;;;;;;;;5026406;28;20555;-71
2022/08/17 08:47:00;;;;;;;9.18;4.55;;;;;;;;;;5027084;28;20025;-72
2022/08/17 08:49:31;;;;;;;5.35;4.68;;;;;;;;;;5026602;28;20033;-71
2022/08/17 08:52:02;;;;;;;5.15;4.75;;;;;;;;;;5021353;28;20116;-71
2022/08/17 08:54:50;;;;;;;9.27;4.77;;;;;;;;;;5011593;28;20037;-71
2022/08/17 08:57:20;;;;;;;5.18;4.68;;;;;;;;;;5006168;28;20080;-71
2022/08/17 08:59:55;;;;;;;5.75;4.55;;;;;;;;;;5019611;28;20036;-71
2022/08/17 09:03:09;;;;;;;6.50;4.72;;;;;;;;;;5026341;28;20021;-70
2022/08/17 09:05:56;;;;;;;7.43;4.45;;;;;;;;;;5022044;28;20025;-71
2022/08/17 09:08:27;;;;;;;4.65;4.25;;;;;;;;;;5025820;28;20108;-71
2022/08/17 09:10:57;;;;;;;6.03;4.30;;;;;;;;;;5025743;28;20029;-71
2022/08/17 09:13:43;;;;;;;5.65;4.75;;;;;;;;;;5026548;28;20262;-71
2022/08/17 09:16:15;;;;;;;5.55;4.20;;;;;;;;;;5021599;28;20464;-72
2022/08/17 09:18:50;;;;;;;4.82;4.32;;;;;;;;;;5024520;28;20061;-72
2022/08/17 09:21:24;;;;;;;6.57;4.63;;;;;;;;;;5025044;28;20083;-71
2022/08/17 09:23:58;;;;;;;8.20;4.78;;;;;;;;;;5026246;28;20098;-72
2022/08/17 09:26:36;;;;;;;6.85;4.50;;;;;;;;;;5022365;28;20033;-72
2022/08/17 09:29:07;;;;;;;6.65;4.40;;;;;;;;;;5006071;28;20620;-72
2022/08/17 09:31:38;;;;;;;4.90;4.45;;;;;;;;;;5005859;28;20036;-72
2022/08/17 09:34:07;;;;;;;;;;;;;;;;;;5006502;28;20029;-71
2022/08/17 09:37:02;;;;;;;6.00;4.03;;;;;;;;;;5006127;28;19909;-73
2022/08/17 09:40:07;;;;;;;4.40;3.58;;;;;;;;;;5003119;28;20046;-71
2022/08/17 09:42:43;;;;;;;5.03;4.50;;;;;;;;;;5020506;28;20552;-72
2022/08/17 09:45:25;;;;;;;9.70;4.13;;;;;;;;;;5025290;28;20103;-72
2022/08/17 09:48:13;;;;;;;5.88;4.35;;;;;;;;;;5019354;28;20060;-72
2022/08/17 09:51:03;;;;;;;5.50;4.35;;;;;;;;;;5025148;28;20032;-73
2022/08/17 09:53:30;;;;;;;9.15;5.00;;;;;;;;;;5023513;28;20635;-72
2022/08/17 09:56:04;;;;;;;5.68;4.45;;;;;;;;;;5018058;28;20029;-72
2022/08/17 09:58:59;;;;;;;5.47;4.47;;;;;;;;;;5025199;28;20432;-71
2022/08/17 10:01:34;;;;;;;5.40;4.60;;;;;;;;;;5025554;28;20025;-72
2022/08/17 10:04:31;;;;;;;6.03;5.10;;;;;;;;;;5026141;28;20397;-72
2022/08/17 10:07:00;;;;;;;6.15;4.97;;;;;;;;;;5025122;28;20026;-73
2022/08/17 10:09:47;;;;;;;5.90;5.00;;;;;;;;;;5022550;28;20108;-71
2022/08/17 10:12:25;;;;;;;6.63;4.68;;;;;;;;;;5024066;28;20057;-74
2022/08/17 10:14:56;;;;;;;4.72;4.07;;;;;;;;;;5016410;28;20514;-73
2022/08/17 10:17:35;;;;;;;6.07;4.15;;;;;;;;;;5019887;28;20045;-73
2022/08/17 10:20:09;;;;;;;8.30;5.05;;;;;;;;;;5017042;28;20040;-73
2022/08/17 10:28:39;;;;;;;7.00;4.47;;;;;;;;;;5024798;28;20025;-71
2022/08/17 10:31:08;;;;;;;4.78;4.38;;;;;;;;;;5024850;28;20057;-72
2022/08/17 10:33:59;;;;;;;5.93;4.68;;;;;;;;;;5025319;28;20482;-73
2022/08/17 10:36:40;;;;;;;;;;;;;;;;;;4986964;28;20037;-72
2022/08/17 10:39:25;;;;;;;4.85;4.32;;;;;;;;;;5024699;28;20318;-73
2022/08/17 10:41:56;;;;;;;7.20;4.57;;;;;;;;;;5025072;28;20396;-73
2022/08/17 10:44:33;;;;;;;7.00;4.43;;;;;;;;;;5024807;28;20171;-71
2022/08/17 10:47:17;;;;;;;8.05;4.63;;;;;;;;;;5028533;28;20337;-72
2022/08/17 10:49:52;;;;;;;5.20;4.78;;;;;;;;;;5028135;28;20075;-72
2022/08/17 10:52:26;;;;;;;6.32;5.00;;;;;;;;;;5028817;28;20029;-71
2022/08/17 10:54:57;;;;;;;6.47;5.10;;;;;;;;;;5028571;28;20200;-73
2022/08/17 10:57:25;;;;;;;5.60;5.00;;;;;;;;;;5029649;28;20025;-70
2022/08/17 10:59:53;;;;;;;8.38;5.40;;;;;;;;;;5028307;28;20025;-72
2022/08/17 11:02:18;;;;;;;6.50;5.18;;;;;;;;;;5028433;28;20025;-71
2022/08/17 11:04:59;;;;;;;7.43;4.80;;;;;;;;;;5028957;28;20111;-72
2022/08/17 11:07:34;;;;;;;5.68;5.10;;;;;;;;;;5029682;28;20037;-72
2022/08/17 11:10:17;;;;;;;7.25;4.82;;;;;;;;;;5028769;28;20531;-73
2022/08/17 11:12:53;;;;;;;5.20;4.63;;;;;;;;;;5028709;28;20439;-73
2022/08/17 11:15:50;;;;;;;8.70;5.53;;;;;;;;;;5028850;28;20059;-73
2022/08/17 11:18:29;;;;;;;5.60;5.05;;;;;;;;;;5028329;28;20548;-71
2022/08/17 11:21:46;;;;;;;6.40;4.65;;;;;;;;;;5027834;28;20409;-76
2022/08/17 11:24:35;;;;;;;6.47;5.18;;;;;;;;;;4987130;28;20057;-75
2022/08/17 11:27:22;;;;;;;6.35;5.53;;;;;;;;;;5028286;28;20025;-74
2022/08/17 11:30:12;;;;;;;5.95;5.32;;;;;;;;;;5027729;28;20021;-75
2022/08/17 11:32:44;;;;;;;5.40;4.90;;;;;;;;;;5028964;28;20059;-71
2022/08/17 11:35:21;;;;;;;5.60;5.03;;;;;;;;;;5027791;28;20167;-73
2022/08/17 11:38:15;;;;;;;5.25;4.70;;;;;;;;;;5027809;28;20685;-73
2022/08/17 11:40:52;;;;;;;5.00;4.32;;;;;;;;;;5028116;28;20399;-74
2022/08/17 11:43:33;;;;;;;4.57;4.18;;;;;;;;;;5028087;28;20057;-71
2022/08/17 11:46:02;;;;;;;4.57;4.10;;;;;;;;;;5024086;28;20029;-68
2022/08/17 11:51:59;;;;;;;7.40;4.95;;;;;;;;;;5021495;28;20522;-70
2022/08/17 11:54:36;;;;;;;5.97;4.55;;;;;;;;;;5021547;28;20029;-74
2022/08/17 11:57:24;;;;;;;6.55;4.43;;;;;;;;;;5034593;28;20025;-75
2022/08/17 12:00:07;;;;;;;8.35;5.05;;;;;;;;;;5023622;28;20064;-73
2022/08/17 12:02:37;;;;;;;8.13;4.90;;;;;;;;;;5023566;28;20037;-72
2022/08/17 12:05:24;;;;;;;5.53;5.03;;;;;;;;;;5040818;28;20029;-74
2022/08/17 12:08:16;;;;;;;6.45;4.85;;;;;;;;;;5019951;28;20027;-72
2022/08/17 12:10:57;;;;;;;5.40;4.90;;;;;;;;;;5021867;28;20025;-72
2022/08/17 12:13:24;;;;;;;4.63;4.22;;;;;;;;;;5026662;28;20026;-74
2022/08/17 12:15:52;;;;;;;4.82;4.43;;;;;;;;;;5026234;28;20568;-71
2022/08/17 12:18:27;;;;;;;6.10;3.83;;;;;;;;;;5018240;28;20029;-72
2022/08/17 12:21:12;;;;;;;5.95;4.00;;;;;;;;;;5020063;28;20116;-73
2022/08/17 12:24:07;;;;;;;4.57;4.18;;;;;;;;;;5023124;28;20093;-73
2022/08/17 12:26:34;;;;;;;5.10;4.25;;;;;;;;;;5021972;28;20105;-73
2022/08/17 12:29:10;;;;;;;4.90;4.03;;;;;;;;;;5027059;28;20167;-73
2022/08/17 12:31:43;;;;;;;5.82;4.03;;;;;;;;;;5022753;28;20057;-72
2022/08/17 12:34:15;;;;;;;4.00;3.70;;;;;;;;;;5026690;28;20029;-72
2022/08/17 12:36:40;;;;;;;4.63;4.20;;;;;;;;;;5004936;28;20366;-72
2022/08/17 12:39:07;;;;;;;4.97;4.22;;;;;;;;;;5024007;28;20032;-75
2022/08/17 12:41:37;;;;;;;4.38;3.95;;;;;;;;;;5026782;28;20056;-71
2022/08/17 12:44:21;;;;;;;4.72;3.85;;;;;;;;;;5016673;28;20455;-72
2022/08/17 12:47:13;;;;;;;6.43;4.28;;;;;;;;;;5026303;28;20030;-73
2022/08/17 12:49:41;;;;;;;4.80;4.30;;;;;;;;;;5023133;28;20029;-74
2022/08/17 12:52:19;;;;;;;5.57;4.70;;;;;;;;;;5023656;28;20040;-73
2022/08/17 12:54:51;;;;;;;4.68;4.00;;;;;;;;;;5026513;28;20505;-74
2022/08/17 12:57:24;;;;;;;4.47;4.05;;;;;;;;;;5022686;28;20091;-70
2022/08/17 12:59:53;;;;;;;5.50;4.50;;;;;;;;;;5016791;28;20029;-71
2022/08/17 13:02:30;;;;;;;6.32;4.00;;;;;;;;;;5017144;28;20022;-73
2022/08/17 13:04:58;;;;;;;4.25;3.80;;;;;;;;;;5034696;28;20037;-71
2022/08/17 13:07:33;;;;;;;6.00;3.92;;;;;;;;;;5037856;28;20116;-72
2022/08/17 13:09:59;;;;;;;4.07;3.72;;;;;;;;;;5020684;28;20026;-71
2022/08/17 13:12:31;;;;;;;4.60;3.55;;;;;;;;;;5029827;28;20128;-71
2022/08/17 13:14:57;;;;;;;4.45;3.60;;;;;;;;;;5030750;28;20025;-71
2022/08/17 13:17:27;;;;;;;4.07;3.65;;;;;;;;;;5028459;28;20031;-73
2022/08/17 13:19:53;;;;;;;4.43;4.03;;;;;;;;;;5022890;28;20091;-70
2022/08/17 13:22:22;;;;;;;7.50;4.32;;;;;;;;;;5026023;28;20355;-75
2022/08/17 13:24:53;;;;;;;4.28;3.88;;;;;;;;;;5021198;28;20562;-75
2022/08/17 13:27:21;;;;;;;3.78;3.40;;;;;;;;;;5021992;28;20103;-73
2022/08/17 13:29:50;;;;;;;5.10;3.60;;;;;;;;;;5023174;28;20122;-73
2022/08/17 13:32:18;;;;;;;3.35;3.15;;;;;;;;;;5018492;28;20112;-72
2022/08/17 13:34:49;;;;;;;4.90;3.63;;;;;;;;;;5020498;28;20049;-74
2022/08/17 13:37:31;;;;;;;6.32;3.55;;;;;;;;;;5023165;28;20036;-72
2022/08/17 13:40:06;;;;;;;3.80;3.47;;;;;;;;;;5023328;28;20029;-75
2022/08/17 13:42:40;;;;;;;3.80;3.40;;;;;;;;;;5007069;28;20033;-72
2022/08/17 13:45:27;;;;;;;4.20;3.60;;;;;;;;;;5024899;28;20140;-71
2022/08/17 13:48:08;;;;;;;5.78;3.75;;;;;;;;;;5011332;28;20056;-71
2022/08/17 13:50:46;;;;;;;3.60;3.28;;;;;;;;;;5024514;28;20040;-71
2022/08/17 13:53:21;;;;;;;4.05;3.65;;;;;;;;;;5024960;28;20511;-69
2022/08/17 13:56:10;;;;;;;5.03;3.20;;;;;;;;;;5024550;28;20087;-70
2022/08/17 13:58:39;;;;;;;3.33;3.03;;;;;;;;;;5025145;28;20431;-68
2022/08/17 14:01:42;;;;;;;3.70;3.30;;;;;;;;;;5022706;28;20033;-69
2022/08/17 14:04:14;;;;;;;3.47;3.17;;;;;;;;;;5015345;28;20515;-69
2022/08/17 14:06:52;;;;;;;3.33;3.03;;;;;;;;;;5023122;28;20025;-70
2022/08/17 14:09:19;;;;;;;3.50;3.20;;;;;;;;;;5025302;28;20527;-71
2022/08/17 14:11:46;;;;;;;4.35;2.90;;;;;;;;;;5025191;28;20056;-70
2022/08/17 14:14:12;;;;;;;4.07;3.60;;;;;;;;;;5019965;28;20551;-70
2022/08/17 14:16:40;;;;;;;4.50;3.53;;;;;;;;;;5017638;28;20060;-73
2022/08/17 14:19:11;;;;;;;3.35;2.97;;;;;;;;;;5015013;28;20510;-71
2022/08/17 14:21:38;;;;;;;3.30;3.00;;;;;;;;;;5015934;28;20053;-70
2022/08/17 14:24:15;;;;;;;3.75;3.45;;;;;;;;;;5016390;28;20029;-71
2022/08/17 14:26:42;;;;;;;3.47;3.17;;;;;;;;;;5024126;28;20061;-72
2022/08/17 14:29:07;;;;;;;3.55;3.35;;;;;;;;;;5020720;28;20029;-70
2022/08/17 14:31:33;;;;;;;4.67;3.50;;;;;;;;;;5020218;28;20136;-71
2022/08/17 14:33:59;;;;;;;3.58;3.25;;;;;;;;;;5020085;28;20329;-71
2022/08/17 14:36:24;;;;;;;3.60;3.30;;;;;;;;;;5023746;28;20033;-70
2022/08/17 14:38:49;;;;;;;3.40;3.10;;;;;;;;;;5028377;28;20056;-73
2022/08/17 14:41:15;;;;;;;3.53;3.00;;;;;;;;;;5028531;28;20029;-70
2022/08/17 14:43:40;;;;;;;3.30;3.03;;;;;;;;;;5028690;28;20603;-70
2022/08/17 14:46:05;;;;;;;3.40;3.10;;;;;;;;;;5027956;28;20496;-69
2022/08/17 14:48:37;;;;;;;3.22;3.03;;;;;;;;;;5028001;28;20263;-70
2022/08/17 14:51:03;;;;;;;5.47;2.97;;;;;;;;;;5027679;28;20411;-69
2022/08/17 14:53:29;;;;;;;3.40;3.20;;;;;;;;;;5027838;28;20528;-70
2022/08/17 14:55:54;;;;;;;4.15;3.40;;;;;;;;;;5027534;28;20032;-70
2022/08/17 14:58:20;;;;;;;3.65;2.97;;;;;;;;;;5027987;28;20112;-69
2022/08/17 15:00:45;;;;;;;3.10;2.90;;;;;;;;;;5027637;28;20091;-70
2022/08/17 15:03:11;;;;;;;4.07;3.33;;;;;;;;;;5027876;28;20128;-70
2022/08/17 15:05:37;;;;;;;4.03;3.67;;;;;;;;;;5027486;28;20029;-70
2022/08/17 15:08:04;;;;;;;6.43;3.35;;;;;;;;;;5027803;28;20108;-70
2022/08/17 15:10:30;;;;;;;5.35;3.15;;;;;;;;;;5027420;28;20029;-70
2022/08/17 15:12:56;;;;;;;4.05;3.30;;;;;;;;;;5027741;28;20201;-69
2022/08/17 15:15:21;;;;;;;4.97;3.30;;;;;;;;;;5027763;28;20031;-69
2022/08/17 15:17:47;;;;;;;3.92;3.53;;;;;;;;;;5028119;28;20029;-70
2022/08/17 15:20:16;;;;;;;3.70;3.40;;;;;;;;;;5027556;28;20025;-69
2022/08/17 15:22:43;;;;;;;3.60;3.30;;;;;;;;;;5028067;28;20053;-70
2022/08/17 15:25:09;;;;;;;3.70;3.40;;;;;;;;;;5027859;28;20476;-70
2022/08/17 15:27:35;;;;;;;3.80;3.40;;;;;;;;;;5027678;28;20026;-71
2022/08/17 15:30:05;;;;;;;3.45;3.10;;;;;;;;;;5027605;28;20034;-70
2022/08/17 15:32:33;;;;;;;3.53;3.22;;;;;;;;;;5030820;28;20033;-70
2022/08/17 15:35:00;;;;;;;3.78;3.38;;;;;;;;;;5031066;28;20032;-70
2022/08/17 15:37:27;;;;;;;3.72;3.42;;;;;;;;;;5031516;28;20423;-69
2022/08/17 15:39:53;;;;;;;4.38;3.42;;;;;;;;;;5023551;28;20610;-70
2022/08/17 15:42:20;;;;;;;3.53;3.22;;;;;;;;;;5020095;28;20438;-69
2022/08/17 15:44:46;;;;;;;4.35;3.38;;;;;;;;;;5021004;28;20057;-70